createdAt,value
2018-07-04T00:04:27.551Z,94.70
2018-07-04T00:07:07.470Z,95.00
2018-07-04T00:09:47.273Z,95.30
2018-07-04T00:12:26.925Z,95.50
2018-07-04T00:15:06.655Z,95.80
2018-07-04T00:17:46.333Z,96.00
2018-07-04T00:20:31.313Z,96.20
2018-07-04T00:23:11.167Z,96.40
2018-07-04T00:25:50.672Z,96.60
2018-07-04T00:28:30.615Z,97.00
2018-07-04T00:31:10.193Z,97.30
2018-07-04T00:33:49.789Z,97.50
2018-07-04T00:36:29.423Z,97.70
2018-07-04T00:39:09.013Z,98.10
2018-07-04T00:41:49.661Z,98.70
2018-07-04T00:44:29.687Z,99.50
2018-07-04T00:47:09.315Z,99.20
2018-07-04T00:49:48.969Z,99.40
2018-07-04T00:52:28.613Z,99.60
2018-07-04T00:55:08.227Z,99.70
2018-07-04T00:57:47.880Z,99.70
2018-07-04T01:00:27.516Z,99.90
2018-07-04T01:03:07.149Z,99.90
2018-07-04T01:05:46.882Z,99.90
2018-07-04T01:08:26.594Z,99.90
2018-07-04T01:11:06.283Z,99.90
2018-07-04T01:13:45.835Z,99.90
2018-07-04T01:16:25.619Z,99.90
2018-07-04T01:19:05.261Z,99.90
2018-07-04T01:21:45.001Z,99.90
2018-07-04T01:24:24.538Z,99.90
2018-07-04T01:27:04.261Z,99.90
2018-07-04T01:29:43.897Z,99.90
2018-07-04T01:40:04.485Z,99.90
2018-07-04T01:42:43.892Z,99.90
2018-07-04T01:45:23.863Z,99.90
2018-07-04T01:48:03.417Z,99.90
2018-07-04T01:50:43.150Z,99.90
2018-07-04T01:53:22.854Z,99.90
2018-07-04T01:56:02.367Z,99.90
2018-07-04T01:58:42.015Z,99.90
2018-07-04T02:01:21.627Z,99.90
2018-07-04T02:04:01.305Z,99.90
2018-07-04T02:06:40.879Z,99.90
2018-07-04T02:09:20.581Z,99.90
2018-07-04T02:12:00.155Z,99.90
2018-07-04T02:14:39.865Z,99.90
2018-07-04T02:17:19.393Z,99.90
2018-07-04T02:19:59.049Z,99.90
2018-07-04T02:22:38.655Z,99.90
2018-07-04T02:25:18.103Z,99.90
2018-07-04T02:27:57.747Z,99.90
2018-07-04T02:30:37.401Z,99.90
2018-07-04T02:33:16.945Z,99.90
2018-07-04T02:35:56.595Z,99.90
2018-07-04T02:38:36.209Z,99.90
2018-07-04T02:43:49.531Z,99.90
2018-07-04T02:46:34.667Z,99.90
2018-07-04T02:49:14.291Z,99.90
2018-07-04T02:51:53.929Z,99.90
2018-07-04T02:54:33.649Z,99.90
2018-07-04T02:57:13.349Z,99.90
2018-07-04T02:59:53.209Z,99.90
2018-07-04T03:02:32.971Z,99.90
2018-07-04T03:05:12.546Z,99.90
2018-07-04T03:07:52.675Z,99.90
2018-07-04T03:10:32.471Z,99.90
2018-07-04T03:13:12.192Z,99.90
2018-07-04T03:15:51.723Z,99.90
2018-07-04T03:18:31.427Z,99.90
2018-07-04T03:21:11.087Z,99.90
2018-07-04T03:26:24.275Z,99.90
2018-07-04T03:29:04.005Z,99.90
2018-07-04T03:31:43.657Z,99.90
2018-07-04T03:34:23.380Z,99.90
2018-07-04T03:37:03.114Z,99.90
2018-07-04T03:39:42.876Z,99.90
2018-07-04T03:42:22.760Z,99.90
2018-07-04T03:45:02.489Z,99.90
2018-07-04T03:47:42.098Z,99.90
2018-07-04T03:50:21.716Z,99.90
2018-07-04T03:53:01.222Z,99.90
2018-07-04T03:55:40.916Z,99.90
2018-07-04T03:58:20.540Z,99.90
2018-07-04T04:01:00.172Z,99.90
2018-07-04T04:03:39.836Z,99.90
2018-07-04T04:06:19.640Z,99.90
2018-07-04T04:08:59.352Z,99.90
2018-07-04T04:21:57.956Z,99.90
2018-07-04T04:24:37.648Z,99.90
2018-07-04T04:27:17.252Z,99.90
2018-07-04T04:29:57.006Z,99.90
2018-07-04T04:32:36.633Z,99.90
2018-07-04T04:37:50.037Z,99.90
2018-07-04T04:40:29.834Z,99.90
2018-07-04T04:43:09.675Z,99.90
2018-07-04T04:45:49.148Z,99.90
2018-07-04T04:48:28.636Z,99.90
2018-07-04T04:51:08.320Z,99.90
2018-07-04T04:53:48.044Z,99.90
2018-07-04T04:56:27.715Z,99.90
2018-07-04T04:59:07.472Z,99.90
2018-07-04T05:01:47.292Z,99.90
2018-07-04T05:04:27.017Z,99.90
2018-07-04T05:09:40.274Z,99.90
2018-07-04T05:12:19.808Z,99.90
2018-07-04T05:14:59.454Z,99.90
2018-07-04T05:17:39.200Z,99.90
2018-07-04T05:20:18.848Z,99.90
2018-07-04T05:22:58.625Z,99.90
2018-07-04T05:25:38.305Z,99.90
2018-07-04T05:28:17.990Z,99.90
2018-07-04T05:30:57.616Z,99.90
2018-07-04T05:33:37.247Z,99.90
2018-07-04T05:36:16.865Z,99.90
2018-07-04T05:38:56.509Z,99.90
2018-07-04T05:41:36.311Z,99.90
2018-07-04T05:46:49.880Z,99.90
2018-07-04T05:49:29.509Z,99.90
2018-07-04T05:52:09.077Z,99.90
2018-07-04T05:54:48.917Z,99.90
2018-07-04T05:57:28.481Z,99.90
2018-07-04T06:00:08.041Z,99.90
2018-07-04T06:02:47.769Z,99.90
2018-07-04T06:08:01.289Z,99.90
2018-07-04T06:10:41.004Z,99.90
2018-07-04T06:13:20.964Z,99.90
2018-07-04T06:16:00.587Z,99.90
2018-07-04T06:21:13.750Z,99.90
2018-07-04T06:23:53.350Z,99.90
2018-07-04T06:26:33.104Z,99.90
2018-07-04T06:29:12.789Z,99.90
2018-07-04T06:31:52.853Z,99.90
2018-07-04T06:34:32.383Z,99.90
2018-07-04T06:37:12.179Z,99.90
2018-07-04T06:39:39.400Z,99.90
2018-07-04T06:42:06.635Z,99.90
2018-07-04T06:44:33.864Z,99.90
2018-07-04T06:47:01.093Z,99.90
2018-07-04T06:49:28.331Z,99.90
2018-07-04T06:51:55.584Z,99.90
2018-07-04T06:54:22.825Z,99.90
2018-07-04T06:56:50.089Z,99.90
2018-07-04T06:59:17.322Z,99.90
2018-07-04T07:01:44.561Z,99.90
2018-07-04T07:04:24.145Z,99.90
2018-07-04T07:07:03.936Z,99.90
2018-07-04T07:09:43.491Z,99.90
2018-07-04T07:12:23.167Z,99.90
2018-07-04T07:15:02.873Z,99.90
2018-07-04T07:17:42.704Z,99.90
2018-07-04T07:20:22.329Z,99.90
2018-07-04T07:25:35.574Z,99.90
2018-07-04T07:30:48.854Z,99.90
2018-07-04T07:33:28.681Z,99.90
2018-07-04T07:36:08.268Z,99.90
2018-07-04T07:38:48.126Z,99.90
2018-07-04T07:41:27.832Z,99.70
2018-07-04T07:44:07.536Z,99.90
2018-07-04T07:49:21.051Z,99.90
2018-07-04T07:52:00.532Z,99.90
2018-07-04T07:54:40.353Z,99.90
2018-07-04T07:57:20.004Z,99.90
2018-07-04T07:59:59.597Z,99.90
2018-07-04T08:02:39.258Z,99.90
2018-07-04T08:05:18.944Z,99.90
2018-07-04T08:07:58.598Z,99.90
2018-07-04T08:10:38.216Z,99.90
2018-07-04T08:13:17.876Z,99.90
2018-07-04T08:15:57.528Z,99.90
2018-07-04T08:18:37.136Z,99.90
2018-07-04T08:21:16.836Z,99.90
2018-07-04T08:23:56.540Z,99.90
2018-07-04T08:26:36.182Z,99.90
2018-07-04T08:29:15.873Z,99.80
2018-07-04T08:31:55.619Z,99.40
2018-07-04T08:34:35.159Z,99.00
2018-07-04T08:39:48.496Z,98.30
2018-07-04T08:42:28.144Z,98.00
2018-07-04T08:45:07.846Z,97.70
2018-07-04T08:47:47.490Z,97.90
2018-07-04T08:50:27.204Z,98.00
2018-07-04T08:53:06.888Z,97.80
2018-07-04T08:55:46.520Z,97.50
2018-07-04T08:58:26.343Z,97.20
2018-07-04T09:01:05.804Z,97.00
2018-07-04T09:03:45.445Z,97.30
2018-07-04T09:06:25.180Z,97.20
2018-07-04T09:09:04.896Z,96.70
2018-07-04T09:11:44.466Z,97.20
2018-07-04T09:14:24.004Z,97.30
2018-07-04T09:17:03.482Z,97.10
2018-07-04T09:19:43.052Z,97.20
2018-07-04T09:22:22.598Z,96.90
2018-07-04T09:27:35.802Z,95.60
2018-07-04T09:30:15.496Z,95.00
2018-07-04T09:32:55.133Z,93.70
2018-07-04T09:38:08.435Z,93.40
2018-07-04T09:40:48.161Z,92.80
2018-07-04T09:43:27.740Z,92.50
2018-07-04T09:46:07.331Z,92.60
2018-07-04T09:48:46.884Z,92.70
2018-07-04T09:51:26.532Z,92.90
2018-07-04T09:54:06.049Z,92.80
2018-07-04T09:56:45.735Z,92.50
2018-07-04T09:59:25.425Z,91.20
2018-07-04T10:02:05.174Z,90.50
2018-07-04T10:04:44.738Z,90.70
2018-07-04T10:09:57.798Z,91.10
2018-07-04T10:12:37.422Z,91.70
2018-07-04T10:15:17.102Z,91.20
2018-07-04T10:17:56.733Z,85.40
2018-07-04T10:20:36.323Z,85.40
2018-07-04T10:23:15.996Z,83.90
2018-07-04T10:25:55.778Z,81.60
2018-07-04T10:31:08.889Z,74.30
2018-07-04T10:33:48.518Z,73.70
2018-07-04T10:36:28.160Z,73.30
2018-07-04T10:39:07.826Z,74.30
2018-07-04T10:41:47.492Z,74.90
2018-07-04T10:44:27.222Z,73.80
2018-07-04T10:47:06.948Z,73.50
2018-07-04T10:49:46.649Z,71.90
2018-07-04T10:52:26.273Z,71.00
2018-07-04T10:55:05.864Z,70.30
2018-07-04T11:00:19.991Z,68.60
2018-07-04T11:02:59.643Z,69.20
2018-07-04T11:05:39.491Z,69.30
2018-07-04T11:08:19.135Z,68.70
2018-07-04T11:10:58.874Z,69.80
2018-07-04T11:13:38.545Z,69.70
2018-07-04T11:16:18.166Z,69.00
2018-07-04T11:18:57.846Z,68.60
2018-07-04T11:21:37.583Z,69.00
2018-07-04T11:24:17.247Z,69.50
2018-07-04T11:29:30.450Z,67.20
2018-07-04T11:32:10.114Z,65.50
2018-07-04T11:34:49.616Z,63.90
2018-07-04T11:37:29.335Z,64.80
2018-07-04T11:40:09.093Z,66.20
2018-07-04T11:42:48.873Z,65.20
2018-07-04T11:45:28.477Z,66.80
2018-07-04T11:47:55.725Z,65.80
2018-07-04T11:50:22.949Z,66.90
2018-07-04T11:52:50.184Z,65.30
2018-07-04T11:55:17.443Z,63.80
2018-07-04T12:00:12.171Z,64.10
2018-07-04T12:02:39.477Z,65.10
2018-07-04T12:05:19.169Z,64.30
2018-07-04T12:07:46.341Z,64.70
2018-07-04T12:10:13.588Z,67.20
2018-07-04T12:12:40.818Z,66.00
2018-07-04T12:15:08.049Z,64.20
2018-07-04T12:17:35.293Z,63.90
2018-07-04T12:22:30.071Z,64.00
2018-07-04T12:24:57.307Z,63.60
2018-07-04T12:27:24.545Z,61.70
2018-07-04T12:29:51.797Z,61.70
2018-07-04T12:32:19.018Z,62.40
2018-07-04T12:34:46.251Z,62.50
2018-07-04T12:39:41.011Z,62.60
2018-07-04T12:42:08.257Z,62.40
2018-07-04T12:44:35.506Z,60.20
2018-07-04T12:47:02.782Z,59.50
2018-07-04T12:49:29.969Z,59.90
2018-07-04T12:54:30.092Z,59.40
2018-07-04T12:57:09.775Z,59.20
2018-07-04T12:59:49.519Z,59.20
2018-07-04T13:02:29.039Z,59.70
2018-07-04T13:07:42.275Z,60.00
2018-07-04T13:10:22.006Z,60.10
2018-07-04T13:13:01.708Z,61.10
2018-07-04T13:15:41.239Z,60.00
2018-07-04T13:18:24.303Z,60.70
2018-07-04T13:21:03.960Z,61.40
2018-07-04T13:23:43.563Z,62.00
2018-07-04T13:26:23.249Z,62.80
2018-07-04T13:31:36.452Z,63.80
2018-07-04T13:34:16.173Z,64.70
2018-07-04T13:36:55.779Z,65.50
2018-07-04T13:39:35.420Z,65.90
2018-07-04T13:44:48.900Z,67.80
2018-07-04T13:47:28.644Z,68.70
2018-07-04T13:50:08.204Z,69.80
2018-07-04T13:52:47.859Z,71.30
2018-07-04T13:55:27.474Z,72.00
2018-07-04T13:58:07.114Z,72.60
2018-07-04T14:00:46.765Z,72.70
2018-07-04T14:03:26.574Z,73.00
2018-07-04T14:06:06.190Z,73.70
2018-07-04T14:08:45.826Z,74.10
2018-07-04T14:11:25.480Z,74.20
2018-07-04T14:14:05.189Z,74.10
2018-07-04T14:16:44.760Z,73.70
2018-07-04T14:19:24.390Z,73.50
2018-07-04T14:22:04.083Z,74.50
2018-07-04T14:24:43.874Z,74.20
2018-07-04T14:27:23.468Z,74.90
2018-07-04T14:30:03.212Z,74.90
2018-07-04T14:32:42.879Z,74.00
2018-07-04T14:35:22.488Z,74.10
2018-07-04T14:38:02.278Z,72.90
2018-07-04T14:40:41.895Z,70.30
2018-07-04T14:43:21.780Z,69.70
2018-07-04T14:46:01.360Z,68.70
2018-07-04T14:48:41.120Z,66.10
2018-07-04T14:51:20.590Z,65.00
2018-07-04T14:54:00.143Z,65.30
2018-07-04T14:56:39.766Z,65.70
2018-07-04T14:59:19.420Z,66.20
2018-07-04T15:01:58.976Z,65.80
2018-07-04T15:04:38.548Z,66.40
2018-07-04T15:07:18.096Z,66.10
2018-07-04T15:09:57.951Z,65.90
2018-07-04T15:12:37.529Z,65.60
2018-07-04T15:15:17.012Z,65.30
2018-07-04T15:17:56.646Z,63.30
2018-07-04T15:20:36.264Z,59.20
2018-07-04T15:23:15.844Z,59.40
2018-07-04T15:25:55.514Z,62.50
2018-07-04T15:28:34.979Z,66.40
2018-07-04T15:31:14.656Z,68.00
2018-07-04T15:33:54.356Z,70.50
2018-07-04T15:36:34.054Z,71.60
2018-07-04T15:39:13.777Z,74.60
2018-07-04T15:41:53.472Z,72.70
2018-07-04T15:44:33.276Z,75.00
2018-07-04T15:47:12.876Z,76.40
2018-07-04T15:49:52.500Z,78.30
2018-07-04T15:52:32.450Z,80.20
2018-07-04T15:55:12.125Z,80.70
2018-07-04T15:57:51.823Z,83.40
2018-07-04T16:00:31.478Z,94.80
2018-07-04T16:03:11.072Z,99.90
2018-07-04T16:05:51.199Z,99.90
2018-07-04T16:08:31.319Z,99.90
2018-07-04T16:11:11.109Z,99.90
2018-07-04T16:13:50.814Z,99.90
2018-07-04T16:16:30.393Z,99.90
2018-07-04T16:19:09.989Z,99.90
2018-07-04T16:21:49.678Z,99.90
2018-07-04T16:24:29.318Z,99.90
2018-07-04T16:27:08.865Z,99.90
2018-07-04T16:29:48.544Z,99.90
2018-07-04T16:32:28.085Z,99.90
2018-07-04T16:35:07.761Z,99.90
2018-07-04T16:37:47.409Z,99.90
2018-07-04T16:40:26.910Z,99.90
2018-07-04T16:43:06.329Z,99.90
2018-07-04T16:45:45.899Z,99.90
2018-07-04T16:48:25.594Z,99.90
2018-07-04T16:51:05.377Z,99.90
2018-07-04T16:53:44.949Z,99.90
2018-07-04T16:56:24.518Z,99.90
2018-07-04T16:59:04.185Z,99.90
2018-07-04T17:01:43.817Z,99.90
2018-07-04T17:04:23.470Z,99.90
2018-07-04T17:07:03.127Z,99.90
2018-07-04T17:09:42.568Z,99.90
2018-07-04T17:12:22.279Z,99.90
2018-07-04T17:15:01.848Z,99.90
2018-07-04T17:17:41.473Z,99.90
2018-07-04T17:20:21.177Z,99.90
2018-07-04T17:23:00.663Z,99.90
2018-07-04T17:25:40.330Z,99.90
2018-07-04T17:30:53.556Z,99.90
2018-07-04T17:33:33.211Z,99.90
2018-07-04T17:36:12.855Z,99.90
2018-07-04T17:38:52.439Z,99.90
2018-07-04T17:41:32.045Z,99.90
2018-07-04T17:44:11.663Z,99.90
2018-07-04T17:46:51.313Z,99.90
2018-07-04T17:49:30.922Z,99.90
2018-07-04T17:52:10.413Z,99.90
2018-07-04T17:54:50.110Z,99.90
2018-07-04T17:57:29.649Z,99.90
2018-07-04T18:00:09.297Z,99.90
2018-07-04T18:02:48.847Z,99.90
2018-07-04T18:05:28.598Z,99.90
2018-07-04T18:08:08.224Z,99.90
2018-07-04T18:10:47.668Z,99.90
2018-07-04T18:13:27.415Z,99.90
2018-07-04T18:16:06.989Z,99.90
2018-07-04T18:18:46.667Z,99.90
2018-07-04T18:21:26.897Z,99.90
2018-07-04T18:24:07.823Z,99.90
2018-07-04T18:26:47.660Z,99.90
2018-07-04T18:29:27.124Z,99.90
2018-07-04T18:32:07.244Z,99.90
2018-07-04T18:34:47.326Z,99.90
2018-07-04T18:37:27.145Z,99.90
2018-07-04T18:40:06.882Z,99.90
2018-07-04T18:42:46.627Z,99.90
2018-07-04T18:45:26.202Z,99.90
2018-07-04T18:48:05.865Z,99.90
2018-07-04T18:50:45.506Z,99.90
2018-07-04T18:53:25.140Z,99.90
2018-07-04T18:56:04.918Z,99.90
2018-07-04T18:58:44.645Z,99.90
2018-07-04T19:01:24.341Z,99.90
2018-07-04T19:04:03.982Z,99.90
2018-07-04T19:06:43.618Z,99.90
2018-07-04T19:09:23.218Z,99.90
2018-07-04T19:12:02.868Z,99.90
2018-07-04T19:14:42.938Z,99.90
2018-07-04T19:17:22.637Z,99.90
2018-07-04T19:20:02.303Z,99.90
2018-07-04T19:22:41.859Z,99.90
2018-07-04T19:25:21.346Z,99.90
2018-07-04T19:28:01.171Z,99.90
2018-07-04T19:30:40.790Z,99.90
2018-07-04T19:33:20.430Z,99.90
2018-07-04T19:36:00.046Z,99.90
2018-07-04T19:41:13.301Z,99.90
2018-07-04T19:43:52.962Z,99.90
2018-07-04T19:46:32.613Z,99.90
2018-07-04T19:49:12.322Z,99.90
2018-07-04T19:51:51.944Z,99.90
2018-07-04T19:54:31.544Z,99.90
2018-07-04T19:57:10.991Z,99.90
2018-07-04T19:59:50.639Z,99.90
2018-07-04T20:02:30.284Z,99.90
2018-07-04T20:05:09.950Z,99.90
2018-07-04T20:07:49.429Z,99.90
2018-07-04T20:10:30.254Z,99.90
2018-07-04T20:13:10.037Z,99.90
2018-07-04T20:15:49.751Z,99.90
2018-07-04T20:18:29.400Z,99.90
2018-07-04T20:21:09.063Z,99.90
2018-07-04T20:23:48.664Z,99.90
2018-07-04T20:26:28.190Z,99.90
2018-07-04T20:29:07.925Z,99.90
2018-07-04T20:31:47.586Z,99.90
2018-07-04T20:34:28.014Z,99.90
2018-07-04T20:37:07.662Z,99.90
2018-07-04T20:39:47.382Z,99.90
2018-07-04T20:42:26.942Z,99.90
2018-07-04T20:45:06.613Z,99.90
2018-07-04T20:47:46.201Z,99.90
2018-07-04T20:50:25.828Z,99.90
2018-07-04T20:53:05.604Z,99.90
2018-07-04T20:55:45.231Z,99.90
2018-07-04T20:58:24.943Z,99.90
2018-07-04T21:01:04.636Z,99.90
2018-07-04T21:03:44.300Z,99.90
2018-07-04T21:06:23.940Z,99.90
2018-07-04T21:09:03.540Z,99.90
2018-07-04T21:11:43.051Z,99.90
2018-07-04T21:19:29.911Z,99.90
2018-07-04T21:22:09.572Z,99.90
2018-07-04T21:24:49.086Z,99.90
2018-07-04T21:27:28.830Z,99.90
2018-07-04T21:30:08.445Z,99.90
2018-07-04T21:32:48.220Z,99.90
2018-07-04T21:35:27.788Z,99.90
2018-07-04T21:38:07.420Z,99.90
2018-07-04T21:40:47.207Z,99.90
2018-07-04T21:43:26.852Z,99.90
2018-07-04T21:46:06.547Z,99.90
2018-07-04T21:48:46.501Z,99.90
2018-07-04T21:51:26.103Z,99.90
2018-07-04T21:54:05.734Z,99.90
2018-07-04T21:56:45.746Z,99.90
2018-07-04T21:59:25.424Z,99.90
2018-07-04T22:02:05.109Z,99.90
2018-07-04T22:04:44.768Z,99.90
2018-07-04T22:09:57.934Z,99.90
2018-07-04T22:12:37.547Z,99.90
2018-07-04T22:15:17.129Z,99.90
2018-07-04T22:17:56.909Z,99.90
2018-07-04T22:20:36.538Z,99.90
2018-07-04T22:23:16.315Z,99.90
2018-07-04T22:25:55.931Z,99.90
2018-07-04T22:28:35.572Z,99.90
2018-07-04T22:31:15.185Z,99.90
2018-07-04T22:33:54.968Z,99.90
2018-07-04T22:36:34.578Z,99.90
2018-07-04T22:39:14.288Z,99.90
2018-07-04T22:41:54.058Z,99.90
2018-07-04T22:44:33.789Z,99.90
2018-07-04T22:47:13.517Z,99.90
2018-07-04T22:49:53.233Z,99.90
2018-07-04T22:52:32.858Z,99.90
2018-07-04T22:55:12.424Z,99.90
2018-07-04T22:57:52.118Z,99.90
2018-07-04T23:00:31.792Z,99.90
2018-07-04T23:03:11.430Z,99.90
2018-07-04T23:05:51.109Z,99.90
2018-07-04T23:08:30.922Z,99.90
2018-07-04T23:11:10.648Z,99.90
2018-07-04T23:13:50.048Z,99.90
2018-07-04T23:16:29.709Z,99.90
2018-07-04T23:19:09.325Z,99.90
2018-07-04T23:21:48.882Z,99.90
2018-07-04T23:24:28.532Z,99.90
2018-07-04T23:27:08.051Z,99.90
2018-07-04T23:29:47.709Z,99.90
2018-07-04T23:32:27.299Z,99.90
2018-07-04T23:35:06.893Z,99.90
2018-07-04T23:40:20.236Z,99.90
2018-07-04T23:42:59.958Z,99.90
2018-07-04T23:45:39.536Z,99.90
2018-07-04T23:48:19.151Z,99.90
2018-07-04T23:50:58.804Z,99.90
2018-07-04T23:53:38.370Z,99.90
2018-07-04T23:56:18.013Z,99.90
2018-07-04T23:58:57.705Z,99.90
